sensor_id;sensor_type;location;lat;lon;timestamp;P1;durP1;ratioP1;P2;durP2;ratioP2
38557;SDS011;24333;42.626;23.308;2024-01-16T07:18:17;2.13;;;1.17;;
38557;SDS011;24333;42.626;23.308;2024-01-16T07:20:43;3.38;;;1.55;;
38557;SDS011;24333;42.626;23.308;2024-01-16T07:23:08;3.05;;;1.27;;
38557;SDS011;24333;42.626;23.308;2024-01-16T07:25:33;1.38;;;1.00;;
38557;SDS011;24333;42.626;23.308;2024-01-16T07:27:58;2.28;;;1.40;;
38557;SDS011;24333;42.626;23.308;2024-01-16T07:30:24;2.58;;;1.13;;
38557;SDS011;24333;42.626;23.308;2024-01-16T07:32:49;1.67;;;0.90;;
38557;SDS011;24333;42.626;23.308;2024-01-16T07:35:16;4.05;;;1.48;;
38557;SDS011;24333;42.626;23.308;2024-01-16T07:37:41;2.33;;;1.20;;
38557;SDS011;24333;42.626;23.308;2024-01-16T07:40:06;2.83;;;0.87;;
38557;SDS011;24333;42.626;23.308;2024-01-16T07:42:34;1.75;;;1.20;;
38557;SDS011;24333;42.626;23.308;2024-01-16T07:45:00;0.65;;;0.65;;
38557;SDS011;24333;42.626;23.308;2024-01-16T07:47:29;3.13;;;1.45;;
38557;SDS011;24333;42.626;23.308;2024-01-16T07:49:54;6.63;;;1.60;;
38557;SDS011;24333;42.626;23.308;2024-01-16T07:52:20;1.00;;;0.80;;
38557;SDS011;24333;42.626;23.308;2024-01-16T07:54:46;1.30;;;0.70;;
38557;SDS011;24333;42.626;23.308;2024-01-16T07:57:11;3.58;;;1.65;;
38557;SDS011;24333;42.626;23.308;2024-01-16T07:59:37;3.30;;;1.42;;
38557;SDS011;24333;42.626;23.308;2024-01-16T08:02:12;1.42;;;0.80;;
38557;SDS011;24333;42.626;23.308;2024-01-16T08:04:43;2.45;;;1.00;;
38557;SDS011;24333;42.626;23.308;2024-01-16T08:07:09;2.85;;;1.52;;
38557;SDS011;24333;42.626;23.308;2024-01-16T08:09:34;3.78;;;1.20;;
38557;SDS011;24333;42.626;23.308;2024-01-16T08:12:00;2.78;;;1.40;;
38557;SDS011;24333;42.626;23.308;2024-01-16T08:14:27;2.63;;;1.55;;
38557;SDS011;24333;42.626;23.308;2024-01-16T08:16:54;1.67;;;1.10;;
38557;SDS011;24333;42.626;23.308;2024-01-16T08:19:19;2.53;;;1.08;;
38557;SDS011;24333;42.626;23.308;2024-01-16T08:21:49;4.57;;;1.70;;
38557;SDS011;24333;42.626;23.308;2024-01-16T08:24:23;5.82;;;2.55;;
38557;SDS011;24333;42.626;23.308;2024-01-16T08:29:29;3.28;;;1.40;;
38557;SDS011;24333;42.626;23.308;2024-01-16T08:31:54;2.63;;;1.50;;
38557;SDS011;24333;42.626;23.308;2024-01-16T09:00:44;4.47;;;1.40;;
38557;SDS011;24333;42.626;23.308;2024-01-16T09:03:09;8.63;;;2.97;;
38557;SDS011;24333;42.626;23.308;2024-01-16T09:05:34;23.10;;;7.45;;
38557;SDS011;24333;42.626;23.308;2024-01-16T09:08:06;18.40;;;7.20;;
38557;SDS011;24333;42.626;23.308;2024-01-16T09:10:32;6.10;;;2.75;;
38557;SDS011;24333;42.626;23.308;2024-01-16T09:12:57;12.15;;;4.65;;
38557;SDS011;24333;42.626;23.308;2024-01-16T09:15:24;10.43;;;3.10;;
38557;SDS011;24333;42.626;23.308;2024-01-16T09:17:49;44.55;;;12.82;;
38557;SDS011;24333;42.626;23.308;2024-01-16T09:20:14;114.85;;;31.27;;
38557;SDS011;24333;42.626;23.308;2024-01-16T09:22:40;90.13;;;30.27;;
38557;SDS011;24333;42.626;23.308;2024-01-16T09:25:05;39.70;;;14.27;;
38557;SDS011;24333;42.626;23.308;2024-01-16T09:27:31;33.67;;;12.15;;
38557;SDS011;24333;42.626;23.308;2024-01-16T09:29:56;21.98;;;9.40;;
38557;SDS011;24333;42.626;23.308;2024-01-16T09:32:21;36.03;;;11.25;;
38557;SDS011;24333;42.626;23.308;2024-01-16T09:34:47;10.90;;;4.07;;
38557;SDS011;24333;42.626;23.308;2024-01-16T09:37:12;12.32;;;5.53;;
38557;SDS011;24333;42.626;23.308;2024-01-16T09:39:40;12.05;;;4.88;;
38557;SDS011;24333;42.626;23.308;2024-01-16T09:42:06;21.73;;;7.60;;
38557;SDS011;24333;42.626;23.308;2024-01-16T09:44:31;6.60;;;2.25;;
38557;SDS011;24333;42.626;23.308;2024-01-16T09:47:01;19.17;;;7.78;;
38557;SDS011;24333;42.626;23.308;2024-01-16T09:49:27;9.20;;;3.88;;
38557;SDS011;24333;42.626;23.308;2024-01-16T09:51:57;14.88;;;6.70;;
38557;SDS011;24333;42.626;23.308;2024-01-16T09:54:24;12.65;;;4.63;;
38557;SDS011;24333;42.626;23.308;2024-01-16T09:56:51;20.48;;;8.48;;
38557;SDS011;24333;42.626;23.308;2024-01-16T09:59:17;16.08;;;5.13;;
38557;SDS011;24333;42.626;23.308;2024-01-16T10:01:43;6.63;;;2.72;;
38557;SDS011;24333;42.626;23.308;2024-01-16T10:04:08;5.95;;;2.85;;
38557;SDS011;24333;42.626;23.308;2024-01-16T10:06:34;7.32;;;3.63;;
38557;SDS011;24333;42.626;23.308;2024-01-16T10:08:59;5.50;;;2.67;;
38557;SDS011;24333;42.626;23.308;2024-01-16T10:11:25;16.15;;;4.25;;
38557;SDS011;24333;42.626;23.308;2024-01-16T10:13:51;5.82;;;2.65;;
38557;SDS011;24333;42.626;23.308;2024-01-16T10:16:16;4.35;;;2.20;;
38557;SDS011;24333;42.626;23.308;2024-01-16T10:18:41;2.92;;;1.65;;
38557;SDS011;24333;42.626;23.308;2024-01-16T10:21:23;2.67;;;1.30;;
38557;SDS011;24333;42.626;23.308;2024-01-16T10:23:52;2.65;;;1.23;;
38557;SDS011;24333;42.626;23.308;2024-01-16T10:26:18;3.28;;;1.50;;
38557;SDS011;24333;42.626;23.308;2024-01-16T10:28:46;3.75;;;1.80;;
38557;SDS011;24333;42.626;23.308;2024-01-16T10:31:25;5.00;;;1.60;;
38557;SDS011;24333;42.626;23.308;2024-01-16T10:33:54;4.75;;;1.63;;
38557;SDS011;24333;42.626;23.308;2024-01-16T10:36:20;7.63;;;2.25;;
38557;SDS011;24333;42.626;23.308;2024-01-16T10:38:47;6.32;;;2.22;;
38557;SDS011;24333;42.626;23.308;2024-01-16T10:41:27;2.60;;;1.30;;
38557;SDS011;24333;42.626;23.308;2024-01-16T10:44:07;1.90;;;1.00;;
38557;SDS011;24333;42.626;23.308;2024-01-16T17:46:16;64.00;;;23.45;;
38557;SDS011;24333;42.626;23.308;2024-01-16T17:48:41;35.00;;;14.48;;
38557;SDS011;24333;42.626;23.308;2024-01-16T17:51:08;29.10;;;13.75;;
38557;SDS011;24333;42.626;23.308;2024-01-16T17:53:33;21.95;;;10.40;;
38557;SDS011;24333;42.626;23.308;2024-01-16T17:55:59;17.63;;;8.02;;
38557;SDS011;24333;42.626;23.308;2024-01-16T17:58:24;21.10;;;9.25;;
38557;SDS011;24333;42.626;23.308;2024-01-16T18:00:51;24.42;;;10.32;;
